createdAt,value
2022-09-01T00:00:01.801Z,14.05
2022-09-01T00:02:34.506Z,13.98
2022-09-01T00:05:04.563Z,13.88
2022-09-01T00:07:34.520Z,13.78
2022-09-01T00:10:07.009Z,13.71
2022-09-01T00:12:35.549Z,13.65
2022-09-01T00:15:05.000Z,13.60
2022-09-01T00:17:34.327Z,13.54
2022-09-01T00:20:02.286Z,13.51
2022-09-01T00:22:30.510Z,13.51
2022-09-01T00:24:58.411Z,13.50
2022-09-01T00:27:30.597Z,13.49
2022-09-01T00:29:58.688Z,13.51
2022-09-01T00:32:26.571Z,13.51
2022-09-01T00:34:54.500Z,13.44
2022-09-01T00:37:22.375Z,13.39
2022-09-01T00:39:50.243Z,13.33
2022-09-01T00:42:18.307Z,13.24
2022-09-01T00:44:47.565Z,13.16
2022-09-01T00:47:15.758Z,13.10
2022-09-01T00:49:48.717Z,13.04
2022-09-01T00:52:20.499Z,12.95
2022-09-01T00:54:54.528Z,12.88
2022-09-01T00:57:23.359Z,12.82
2022-09-01T00:59:57.733Z,12.77
2022-09-01T01:02:26.522Z,12.73
2022-09-01T01:04:56.081Z,12.69
2022-09-01T01:07:24.406Z,12.67
2022-09-01T01:09:52.572Z,12.67
2022-09-01T01:12:21.747Z,12.64
2022-09-01T01:14:51.875Z,12.60
2022-09-01T01:17:22.863Z,12.53
2022-09-01T01:20:11.738Z,12.47
2022-09-01T01:23:03.460Z,12.38
2022-09-01T01:25:35.602Z,12.32
2022-09-01T01:28:10.029Z,12.27
2022-09-01T01:30:40.432Z,12.19
2022-09-01T01:33:08.997Z,12.11
2022-09-01T01:35:39.977Z,12.05
2022-09-01T01:38:08.669Z,11.99
2022-09-01T01:40:39.266Z,11.91
2022-09-01T01:43:08.916Z,11.86
2022-09-01T01:45:36.814Z,11.80
2022-09-01T01:48:08.526Z,11.76
2022-09-01T01:50:38.150Z,11.69
2022-09-01T01:53:11.283Z,11.66
2022-09-01T01:55:43.741Z,11.62
2022-09-01T01:58:12.524Z,11.59
2022-09-01T02:00:44.669Z,11.56
2022-09-01T02:03:17.180Z,11.54
2022-09-01T02:05:45.659Z,11.49
2022-09-01T02:08:15.291Z,11.45
2022-09-01T02:10:46.971Z,11.42
2022-09-01T02:13:18.760Z,11.39
2022-09-01T02:15:48.878Z,11.35
2022-09-01T02:18:20.218Z,11.34
2022-09-01T02:20:50.320Z,11.33
2022-09-01T02:23:23.483Z,11.32
2022-09-01T02:26:15.121Z,11.29
2022-09-01T02:28:43.249Z,11.26
2022-09-01T02:31:12.674Z,11.24
2022-09-01T02:33:44.112Z,11.24
2022-09-01T02:36:15.202Z,11.21
2022-09-01T02:38:46.909Z,11.20
2022-09-01T02:41:27.169Z,11.16
2022-09-01T02:43:55.583Z,11.13
2022-09-01T02:46:24.949Z,11.10
2022-09-01T02:48:54.618Z,11.09
2022-09-01T02:51:25.429Z,11.09
2022-09-01T02:53:54.992Z,11.08
2022-09-01T02:56:27.316Z,11.08
2022-09-01T02:58:56.509Z,11.07
2022-09-01T03:01:29.389Z,11.08
2022-09-01T03:04:01.656Z,11.09
2022-09-01T03:06:34.251Z,11.08
2022-09-01T03:09:04.728Z,11.05
2022-09-01T03:11:36.828Z,11.01
2022-09-01T03:14:06.020Z,10.97
2022-09-01T03:16:34.441Z,10.92
2022-09-01T03:19:03.927Z,10.88
2022-09-01T03:21:32.355Z,10.81
2022-09-01T03:24:02.091Z,10.75
2022-09-01T03:26:31.641Z,10.69
2022-09-01T03:29:01.871Z,10.61
2022-09-01T03:31:32.016Z,10.55
2022-09-01T03:34:03.370Z,10.47
2022-09-01T03:36:35.376Z,10.42
2022-09-01T03:39:03.700Z,10.36
2022-09-01T03:41:33.404Z,10.32
2022-09-01T03:44:02.720Z,10.29
2022-09-01T03:46:36.796Z,10.24
2022-09-01T03:49:08.227Z,10.18
2022-09-01T03:51:39.304Z,10.13
2022-09-01T03:54:08.868Z,10.05
2022-09-01T03:56:41.545Z,10.01
2022-09-01T03:59:17.159Z,9.98
2022-09-01T04:01:46.841Z,9.96
2022-09-01T04:04:16.587Z,9.91
2022-09-01T04:06:46.805Z,9.87
2022-09-01T04:09:15.849Z,9.83
2022-09-01T04:11:47.000Z,9.78
2022-09-01T04:14:18.043Z,9.74
2022-09-01T04:17:05.825Z,9.69
2022-09-01T04:19:37.037Z,9.68
2022-09-01T04:22:07.809Z,9.67
2022-09-01T04:24:45.657Z,9.62
2022-09-01T04:27:14.913Z,9.58
2022-09-01T04:29:46.498Z,9.53
2022-09-01T04:32:15.493Z,9.51
2022-09-01T04:34:46.177Z,9.50
2022-09-01T04:37:19.115Z,9.49
2022-09-01T04:39:56.711Z,9.48
2022-09-01T04:42:27.285Z,9.43
2022-09-01T04:44:58.978Z,9.41
2022-09-01T04:47:35.379Z,9.39
2022-09-01T04:50:14.168Z,9.35
2022-09-01T04:52:45.585Z,9.30
2022-09-01T04:55:28.694Z,9.26
2022-09-01T04:57:58.528Z,9.22
2022-09-01T05:00:32.191Z,9.22
2022-09-01T05:03:04.350Z,9.22
2022-09-01T05:05:54.162Z,9.24
2022-09-01T05:08:24.437Z,9.24
2022-09-01T05:10:56.669Z,9.23
2022-09-01T05:13:57.765Z,9.22
2022-09-01T05:16:27.863Z,9.23
2022-09-01T05:18:57.963Z,9.25
2022-09-01T05:21:30.074Z,9.29
2022-09-01T05:24:01.760Z,9.31
2022-09-01T05:26:34.593Z,9.35
2022-09-01T05:29:03.781Z,9.39
2022-09-01T05:31:37.919Z,9.41
2022-09-01T05:34:09.763Z,9.47
2022-09-01T05:36:42.257Z,9.52
2022-09-01T05:39:12.290Z,9.55
2022-09-01T05:41:41.111Z,9.61
2022-09-01T05:44:11.252Z,9.63
2022-09-01T05:46:43.968Z,9.69
2022-09-01T05:49:18.567Z,9.73
2022-09-01T05:51:51.762Z,9.78
2022-09-01T05:54:27.385Z,9.82
2022-09-01T05:57:02.149Z,9.89
2022-09-01T05:59:36.260Z,9.96
2022-09-01T06:02:12.405Z,10.02
2022-09-01T06:04:44.145Z,10.09
2022-09-01T06:07:18.299Z,10.15
2022-09-01T06:09:53.033Z,10.20
2022-09-01T06:12:24.788Z,10.27
2022-09-01T06:14:55.602Z,10.33
2022-09-01T06:17:27.418Z,10.39
2022-09-01T06:19:59.008Z,10.43
2022-09-01T06:22:29.810Z,10.49
2022-09-01T06:25:02.786Z,10.57
2022-09-01T06:27:38.690Z,10.64
2022-09-01T06:30:15.011Z,10.70
2022-09-01T06:32:52.053Z,10.81
2022-09-01T06:35:20.724Z,10.93
2022-09-01T06:37:49.506Z,11.02
2022-09-01T06:40:41.480Z,11.12
2022-09-01T06:43:12.450Z,11.21
2022-09-01T06:45:43.285Z,11.30
2022-09-01T06:48:16.615Z,11.35
2022-09-01T06:53:35.592Z,11.52
2022-09-01T06:56:08.968Z,11.61
2022-09-01T06:58:36.931Z,11.68
2022-09-01T07:01:08.263Z,11.76
2022-09-01T07:03:39.768Z,11.86
2022-09-01T07:09:38.586Z,12.07
2022-09-01T07:12:25.672Z,12.17
2022-09-01T07:17:43.669Z,12.36
2022-09-01T07:20:30.961Z,12.44
2022-09-01T07:26:02.886Z,12.66
2022-09-01T07:28:37.900Z,12.79
2022-09-01T07:39:51.368Z,13.16
2022-09-01T07:42:30.322Z,12.56
2022-09-01T07:45:58.664Z,13.39
2022-09-01T07:49:01.196Z,13.49
2022-09-01T07:51:36.970Z,13.60
2022-09-01T07:54:07.593Z,13.73
2022-09-01T07:56:40.265Z,13.87
2022-09-01T07:59:14.664Z,13.98
2022-09-01T08:01:52.394Z,14.16
2022-09-01T08:04:23.011Z,14.30
2022-09-01T08:06:51.554Z,14.42
2022-09-01T08:09:37.075Z,14.51
2022-09-01T08:12:07.377Z,14.66
2022-09-01T08:14:39.555Z,14.87
2022-09-01T08:19:59.494Z,15.18
2022-09-01T08:22:48.284Z,15.31
2022-09-01T08:25:25.031Z,15.43
2022-09-01T08:28:02.691Z,15.53
2022-09-01T08:30:32.404Z,15.66
2022-09-01T08:33:10.127Z,15.81
2022-09-01T08:35:40.694Z,15.94
2022-09-01T08:38:09.162Z,16.05
2022-09-01T08:40:39.448Z,16.22
2022-09-01T08:43:16.086Z,16.42
2022-09-01T08:45:50.345Z,16.58
2022-09-01T08:49:16.125Z,16.71
2022-09-01T08:51:20.963Z,16.89
2022-09-01T08:54:05.575Z,17.03
2022-09-01T08:56:37.486Z,17.16
2022-09-01T08:59:09.621Z,17.34
2022-09-01T09:02:07.625Z,17.62
2022-09-01T09:04:53.598Z,17.85
2022-09-01T09:07:32.475Z,18.04
2022-09-01T09:10:07.354Z,18.20
2022-09-01T09:12:49.555Z,18.36
2022-09-01T09:15:27.923Z,18.53
2022-09-01T09:18:34.510Z,18.69
2022-09-01T09:20:56.196Z,18.87
2022-09-01T09:23:30.920Z,18.99
2022-09-01T09:25:58.847Z,19.12
2022-09-01T09:28:28.148Z,19.25
2022-09-01T09:31:26.169Z,19.39
2022-09-01T09:33:55.143Z,19.52
2022-09-01T09:36:29.764Z,19.64
2022-09-01T09:39:10.349Z,19.72
2022-09-01T09:41:40.117Z,19.80
2022-09-01T09:44:22.787Z,19.92
2022-09-01T09:46:51.710Z,20.06
2022-09-01T09:49:35.874Z,20.20
2022-09-01T09:52:17.284Z,20.40
2022-09-01T09:55:01.659Z,20.58
2022-09-01T09:57:31.396Z,20.74
2022-09-01T10:00:06.358Z,20.83
2022-09-01T10:02:41.703Z,20.90
2022-09-01T10:05:30.124Z,20.93
2022-09-01T10:07:59.421Z,21.06
2022-09-01T10:10:32.824Z,21.13
2022-09-01T10:13:02.325Z,21.21
2022-09-01T10:15:34.203Z,21.32
2022-09-01T10:18:29.679Z,21.30
2022-09-01T10:21:00.077Z,21.20
2022-09-01T10:23:31.191Z,21.20
2022-09-01T10:26:05.991Z,21.27
2022-09-01T10:28:37.298Z,21.42
2022-09-01T10:31:09.182Z,21.57
2022-09-01T10:33:37.356Z,21.72
2022-09-01T10:36:08.231Z,21.88
2022-09-01T10:38:36.456Z,22.04
2022-09-01T10:41:14.732Z,22.19
2022-09-01T10:43:45.469Z,22.33
2022-09-01T10:46:50.830Z,22.48
2022-09-01T10:49:51.976Z,22.70
2022-09-01T10:52:55.255Z,22.84
2022-09-01T10:55:25.941Z,22.99
2022-09-01T10:59:29.821Z,23.14
2022-09-01T11:04:02.051Z,23.49
2022-09-01T11:07:17.298Z,23.62
2022-09-01T11:10:31.416Z,23.79
2022-09-01T11:13:28.663Z,23.98
2022-09-01T11:16:00.307Z,24.11
2022-09-01T11:18:31.710Z,24.27
2022-09-01T11:21:25.747Z,24.36
2022-09-01T11:24:33.808Z,24.46
2022-09-01T11:27:01.713Z,24.52
2022-09-01T11:29:53.261Z,24.63
2022-09-01T11:32:27.330Z,24.73
2022-09-01T11:34:58.458Z,24.76
2022-09-01T11:37:27.941Z,24.66
2022-09-01T11:39:59.557Z,24.43
2022-09-01T11:42:30.896Z,24.18
2022-09-01T11:45:01.328Z,23.94
2022-09-01T11:47:33.792Z,23.85
2022-09-01T11:50:04.368Z,23.70
2022-09-01T11:52:36.862Z,23.52
2022-09-01T11:55:06.736Z,23.35
2022-09-01T11:57:36.605Z,23.16
2022-09-01T12:00:08.491Z,22.98
2022-09-01T12:02:45.808Z,22.85
2022-09-01T12:05:27.740Z,22.68
2022-09-01T12:07:58.038Z,22.64
2022-09-01T12:10:32.660Z,22.61
2022-09-01T12:13:05.396Z,22.58
2022-09-01T12:15:35.058Z,22.57
2022-09-01T12:18:19.102Z,22.73
2022-09-01T12:23:25.585Z,22.84
2022-09-01T12:25:55.953Z,22.83
2022-09-01T12:28:25.065Z,22.78
2022-09-01T12:30:55.367Z,22.72
2022-09-01T12:33:24.659Z,22.67
2022-09-01T12:35:57.478Z,22.60
2022-09-01T12:38:31.766Z,22.53
2022-09-01T12:41:00.143Z,22.50
2022-09-01T12:43:32.636Z,22.45
2022-09-01T12:46:02.931Z,22.39
2022-09-01T12:48:34.232Z,22.31
2022-09-01T12:51:03.903Z,22.27
2022-09-01T12:53:37.112Z,22.23
2022-09-01T12:56:20.983Z,22.18
2022-09-01T12:58:52.191Z,22.15
2022-09-01T13:01:32.641Z,22.12
2022-09-01T13:04:26.299Z,22.11
2022-09-01T13:06:55.379Z,22.15
2022-09-01T13:09:24.774Z,22.17
2022-09-01T13:12:08.376Z,22.16
2022-09-01T13:14:36.328Z,22.18
2022-09-01T13:17:04.248Z,22.21
2022-09-01T13:19:32.104Z,22.24
2022-09-01T13:22:00.215Z,22.26
2022-09-01T13:24:31.640Z,22.30
2022-09-01T13:29:48.220Z,22.38
2022-09-01T13:32:18.894Z,22.38
2022-09-01T13:34:48.532Z,22.39
2022-09-01T13:37:18.646Z,22.38
2022-09-01T13:39:48.622Z,22.37
2022-09-01T13:42:17.369Z,22.38
2022-09-01T13:44:48.285Z,22.40
2022-09-01T13:47:33.251Z,22.41
2022-09-01T13:50:11.454Z,22.43
2022-09-01T13:52:40.806Z,22.43
2022-09-01T13:55:11.657Z,22.44
2022-09-01T13:57:39.678Z,22.42
2022-09-01T14:00:10.784Z,22.41
2022-09-01T14:02:39.246Z,22.40
2022-09-01T14:05:08.096Z,22.39
2022-09-01T14:07:37.089Z,22.37
2022-09-01T14:10:07.291Z,22.37
2022-09-01T14:12:36.585Z,22.35
2022-09-01T14:15:16.202Z,22.36
2022-09-01T14:17:45.821Z,22.34
2022-09-01T14:20:18.238Z,22.33
2022-09-01T14:22:46.849Z,22.35
2022-09-01T14:25:16.014Z,22.38
2022-09-01T14:27:46.227Z,22.41
2022-09-01T14:30:19.762Z,22.46
2022-09-01T14:32:47.668Z,22.48
2022-09-01T14:35:16.988Z,22.48
2022-09-01T14:37:45.596Z,22.51
2022-09-01T14:40:16.939Z,22.51
2022-09-01T14:42:49.157Z,22.55
2022-09-01T14:45:18.561Z,22.64
2022-09-01T14:47:46.908Z,22.74
2022-09-01T14:50:19.863Z,22.86
2022-09-01T14:52:52.892Z,23.04
2022-09-01T14:55:21.052Z,23.25
2022-09-01T14:57:50.509Z,23.46
2022-09-01T15:00:19.487Z,23.57
2022-09-01T15:02:48.481Z,23.86
2022-09-01T15:05:16.647Z,24.10
2022-09-01T15:07:45.570Z,24.36
2022-09-01T15:10:16.007Z,24.62
2022-09-01T15:12:52.899Z,24.85
2022-09-01T15:15:22.811Z,24.99
2022-09-01T15:17:51.111Z,24.97
2022-09-01T15:20:36.616Z,24.99
2022-09-01T15:23:05.410Z,25.01
2022-09-01T15:25:33.716Z,24.96
2022-09-01T15:28:03.389Z,24.89
2022-09-01T15:30:31.488Z,24.76
2022-09-01T15:32:59.595Z,24.60
2022-09-01T15:35:29.267Z,24.44
2022-09-01T15:37:58.049Z,24.39
2022-09-01T15:40:27.106Z,24.34
2022-09-01T15:42:55.769Z,24.24
2022-09-01T15:45:26.389Z,24.15
2022-09-01T15:47:54.592Z,24.00
2022-09-01T15:50:27.627Z,23.87
2022-09-01T15:52:58.647Z,23.71
2022-09-01T15:55:28.493Z,23.58
2022-09-01T15:57:56.680Z,23.44
2022-09-01T16:00:30.828Z,23.32
2022-09-01T16:03:01.823Z,23.17
2022-09-01T16:05:30.663Z,23.01
2022-09-01T16:07:58.940Z,22.86
2022-09-01T16:10:27.505Z,22.71
2022-09-01T16:12:55.846Z,22.60
2022-09-01T16:15:26.500Z,22.52
2022-09-01T16:18:16.392Z,22.45
2022-09-01T16:20:55.862Z,22.40
2022-09-01T16:23:26.135Z,22.30
2022-09-01T16:25:54.713Z,22.26
2022-09-01T16:28:27.503Z,22.21
2022-09-01T16:31:00.414Z,22.17
2022-09-01T16:33:28.463Z,22.14
2022-09-01T16:36:08.041Z,22.11
2022-09-01T16:38:43.994Z,22.06
2022-09-01T16:41:21.086Z,21.97
2022-09-01T16:43:58.516Z,21.90
2022-09-01T16:46:35.412Z,21.83
2022-09-01T16:49:20.745Z,21.70
2022-09-01T16:52:01.980Z,21.63
2022-09-01T16:54:43.906Z,21.54
2022-09-01T16:57:23.022Z,21.44
2022-09-01T16:59:55.724Z,21.35
2022-09-01T17:02:38.466Z,21.25
2022-09-01T17:05:17.879Z,21.16
2022-09-01T17:07:52.388Z,21.06
2022-09-01T17:10:33.389Z,21.00
2022-09-01T17:13:16.474Z,20.93
2022-09-01T17:15:48.764Z,20.88
2022-09-01T17:18:22.353Z,20.82
2022-09-01T17:20:58.245Z,20.74
2022-09-01T17:23:29.216Z,20.66
2022-09-01T17:26:01.629Z,20.59
2022-09-01T17:28:35.596Z,20.53
2022-09-01T17:31:14.325Z,20.47
2022-09-01T17:33:58.168Z,20.38
2022-09-01T17:36:36.895Z,20.31
2022-09-01T17:39:14.182Z,20.22
2022-09-01T17:41:52.739Z,20.13
2022-09-01T17:44:30.666Z,20.03
2022-09-01T17:47:08.293Z,19.94
2022-09-01T17:49:48.635Z,19.90
2022-09-01T17:52:24.165Z,19.83
2022-09-01T17:55:01.180Z,19.75
2022-09-01T17:57:38.827Z,19.67
2022-09-01T18:00:10.706Z,19.59
2022-09-01T18:03:06.044Z,19.50
2022-09-01T18:05:41.607Z,19.42
2022-09-01T18:08:25.732Z,19.33
2022-09-01T18:10:59.789Z,19.24
2022-09-01T18:13:51.747Z,19.16
2022-09-01T18:16:24.421Z,19.07
2022-09-01T18:18:53.378Z,18.98
2022-09-01T18:21:26.187Z,18.91
2022-09-01T18:23:59.508Z,18.82
2022-09-01T18:26:32.369Z,18.74
2022-09-01T18:29:02.307Z,18.66
2022-09-01T18:31:56.081Z,18.59
2022-09-01T18:34:40.277Z,18.52
2022-09-01T18:37:14.260Z,18.43
2022-09-01T18:39:53.560Z,18.35
2022-09-01T18:42:29.870Z,18.28
2022-09-01T18:45:05.466Z,18.20
2022-09-01T18:47:35.539Z,18.12
2022-09-01T18:50:13.274Z,18.04
2022-09-01T18:53:01.277Z,17.97
2022-09-01T18:55:38.909Z,17.91
2022-09-01T18:58:11.486Z,17.85
2022-09-01T19:00:47.782Z,17.79
2022-09-01T19:03:26.995Z,17.73
2022-09-01T19:06:09.791Z,17.65
2022-09-01T19:08:52.930Z,17.58
2022-09-01T19:11:32.411Z,17.52
2022-09-01T19:14:07.461Z,17.46
2022-09-01T19:16:49.730Z,17.38
2022-09-01T19:19:33.589Z,17.33
2022-09-01T19:22:01.469Z,17.28
2022-09-01T19:24:38.066Z,17.23
2022-09-01T19:27:11.281Z,17.17
2022-09-01T19:29:46.545Z,17.13
2022-09-01T19:32:19.355Z,17.10
2022-09-01T19:34:52.387Z,17.07
2022-09-01T19:37:21.404Z,17.02
2022-09-01T19:39:54.259Z,16.98
2022-09-01T19:42:27.186Z,16.95
2022-09-01T19:45:06.557Z,16.93
2022-09-01T19:47:40.335Z,16.91
2022-09-01T19:50:15.017Z,16.87
2022-09-01T19:52:47.300Z,16.84
2022-09-01T19:55:30.458Z,16.80
2022-09-01T19:58:04.251Z,16.78
2022-09-01T20:00:50.954Z,16.73
2022-09-01T20:03:23.539Z,16.70
2022-09-01T20:05:55.507Z,16.67
2022-09-01T20:08:30.390Z,16.64
2022-09-01T20:11:05.238Z,16.61
2022-09-01T20:13:59.284Z,16.63
2022-09-01T20:16:31.464Z,16.64
2022-09-01T20:19:04.495Z,16.63
2022-09-01T20:21:39.082Z,16.62
2022-09-01T20:24:20.781Z,16.61
2022-09-01T20:26:57.470Z,16.59
2022-09-01T20:29:33.732Z,16.56
2022-09-01T20:32:03.965Z,16.53
2022-09-01T20:34:38.429Z,16.51
2022-09-01T20:37:11.327Z,16.51
2022-09-01T20:40:09.983Z,16.48
2022-09-01T20:42:49.573Z,16.42
2022-09-01T20:45:20.057Z,16.35
2022-09-01T20:47:52.422Z,16.28
2022-09-01T20:50:24.663Z,16.20
2022-09-01T20:53:07.968Z,16.13
2022-09-01T20:55:41.231Z,16.03
2022-09-01T20:58:16.938Z,15.96
2022-09-01T21:00:49.940Z,15.88
2022-09-01T21:03:33.671Z,15.78
2022-09-01T21:06:09.107Z,15.69
2022-09-01T21:08:46.927Z,15.56
2022-09-01T21:11:27.354Z,15.46
2022-09-01T21:14:08.511Z,15.40
2022-09-01T21:16:50.728Z,15.32
2022-09-01T21:19:26.108Z,15.25
2022-09-01T21:22:04.378Z,15.13
2022-09-01T21:24:32.453Z,15.04
2022-09-01T21:27:02.877Z,14.96
2022-09-01T21:29:44.378Z,14.85
2022-09-01T21:32:13.807Z,14.76
2022-09-01T21:34:41.692Z,14.70
2022-09-01T21:37:09.632Z,14.64
2022-09-01T21:39:37.905Z,14.58
2022-09-01T21:42:08.415Z,14.53
2022-09-01T21:44:38.166Z,14.46
2022-09-01T21:47:06.517Z,14.35
2022-09-01T21:49:34.402Z,14.30
2022-09-01T21:52:02.436Z,14.24
2022-09-01T21:54:30.301Z,14.16
2022-09-01T21:56:58.160Z,14.06
2022-09-01T21:59:26.096Z,13.97
2022-09-01T22:01:55.375Z,13.88
2022-09-01T22:06:36.611Z,13.80
2022-09-01T22:09:20.816Z,13.78
2022-09-01T22:11:50.709Z,13.73
2022-09-01T22:14:18.852Z,13.68
2022-09-01T22:16:46.957Z,13.64
2022-09-01T22:19:14.948Z,13.61
2022-09-01T22:21:44.230Z,13.59
2022-09-01T22:24:12.166Z,13.58
2022-09-01T22:26:40.116Z,13.58
2022-09-01T22:29:09.076Z,13.57
2022-09-01T22:31:38.595Z,13.56
2022-09-01T22:34:07.004Z,13.59
2022-09-01T22:36:37.309Z,13.66
2022-09-01T22:39:09.294Z,13.72
2022-09-01T22:41:38.988Z,13.75
2022-09-01T22:44:07.798Z,13.73
2022-09-01T22:46:37.022Z,13.71
2022-09-01T22:49:05.664Z,13.70
2022-09-01T22:51:34.138Z,13.67
2022-09-01T22:54:02.055Z,13.63
2022-09-01T22:56:34.442Z,13.63
2022-09-01T22:59:05.073Z,13.66
2022-09-01T23:01:37.393Z,13.63
2022-09-01T23:04:08.171Z,13.59
2022-09-01T23:06:39.078Z,13.53
2022-09-01T23:09:09.784Z,13.45
2022-09-01T23:11:39.180Z,13.37
2022-09-01T23:14:07.688Z,13.30
2022-09-01T23:16:35.721Z,13.28
2022-09-01T23:19:03.677Z,13.27
2022-09-01T23:21:34.753Z,13.25
2022-09-01T23:24:03.097Z,13.22
2022-09-01T23:26:32.891Z,13.22
2022-09-01T23:29:03.209Z,13.20
2022-09-01T23:31:36.975Z,13.19
2022-09-01T23:34:05.926Z,13.16
2022-09-01T23:36:34.786Z,13.15
2022-09-01T23:39:03.353Z,13.16
2022-09-01T23:41:33.434Z,13.16
2022-09-01T23:44:05.516Z,13.20
2022-09-01T23:46:36.941Z,13.18
2022-09-01T23:49:05.915Z,13.19
2022-09-01T23:51:34.353Z,13.15
2022-09-01T23:54:02.254Z,13.12
2022-09-01T23:56:31.173Z,13.07
2022-09-01T23:58:59.991Z,13.02
